• Join FlightAware (Why Join?)
  • Login
  • US Flag 
02:35AM EST


 

Airport Tracker/Info


-or-


 

Live Flight TrackerFlight Track Log ✈ OPT732 ✈ 09-May-2013 ✈ KSRQ - KDAY

Flight Track Log - Related Links

Times and Time Zones

All times are in EDT time to prevent confusion due to time zone crossing. See the OPT732 flight status page for this flight to view local times or setup timezone preferences in your user account.

Time Position Orientation Groundspeed Altitude Reporting Facility
EDT Latitude Longitude Course Direction KTS MPH feet Rate Location/Type
11:15AM 27.4000 -82.5667 270° West 168 193 700  Level Tampa TRACON
11:16AM 27.4000 -82.6500 270° West 235 270 3,900 2,820 Climbing Tampa TRACON
11:17AM 27.4667 -82.6833 336° Northwest 268 308 7,000 3,000 Climbing Tampa TRACON
11:18AM 27.5333 -82.7000 348° North 284 327 10,000 2,280 Climbing Tampa TRACON
11:20AM 27.7464 -82.7406 350° North 325 374 14,700 1,980 Climbing Miami Center
11:22AM 27.9558 -82.7892 348° North 346 398 19,100 1,980 Climbing Jacksonville Center
11:23AM 28.0561 -82.8125 348° North 358 412 21,200 2,100 Climbing Jacksonville Center
11:24AM 28.1625 -82.8219 356° North 365 420 23,400 2,100 Climbing Jacksonville Center
11:25AM 28.2708 -82.8172 North 377 434 25,500 1,260 Climbing Jacksonville Center
11:26AM 28.3878 -82.8075 North 395 455 26,000 900 Climbing Jacksonville Center
11:27AM 28.5108 -82.8028 North 419 482 27,400 1,800 Climbing Jacksonville Center
11:28AM 28.6342 -82.7956 North 432 497 29,600 1,920 Climbing Jacksonville Center
11:29AM 28.7592 -82.7861 North 444 511 31,300 2,100 Climbing Jacksonville Center
11:30AM 28.8844 -82.7786 North 444 511 33,800 2,220 Climbing Jacksonville Center
11:31AM 29.0117 -82.7739 North 449 517 35,800 1,560 Climbing Jacksonville Center
11:32AM 29.1411 -82.7642 North 455 524 37,000 1,080 Climbing Jacksonville Center
11:33AM 29.2728 -82.7569 North 463 533 38,000 480 Climbing Jacksonville Center
11:34AM 29.4125 -82.7472 North 482 555 38,000  Level Jacksonville Center
11:35AM 29.5586 -82.7542 358° North 496 571 38,000 540 Level Jacksonville Center
11:36AM 29.6944 -82.7731 353° North 501 577 39,100 1,200 Climbing Jacksonville Center
11:37AM 29.8300 -82.7897 354° North 495 570 40,400 1,140 Climbing Jacksonville Center
11:38AM 29.9617 -82.8039 355° North 484 557 41,400 900 Climbing Jacksonville Center
11:39AM 30.0953 -82.8181 355° North 479 551 42,300 900 Climbing Jacksonville Center
11:40AM 30.2247 -82.8350 354° North 479 551 43,300 840 Climbing Jacksonville Center
11:41AM 30.3522 -82.8492 355° North 469 540 44,000 600 Climbing Jacksonville Center
11:42AM 30.4753 -82.8683 352° North 458 527 44,500 480 Climbing Jacksonville Center
11:43AM 30.6131 -82.8903 352° North 458 527 45,000 240 Climbing Jacksonville Center
11:44AM 30.7425 -82.9047 355° North 458 527 45,000  Level Jacksonville Center
11:45AM 30.8761 -82.9239 353° North 468 539 45,000  Level Jacksonville Center
11:46AM 31.0119 -82.9386 355° North 474 545 45,000  Level Jacksonville Center
11:47AM 31.1331 -82.9483 356° North 497 572 45,000  Level Jacksonville Center
11:48AM 31.2603 -82.9678 353° North 478 550 45,000  Level Jacksonville Center
11:50AM 31.5064 -83.0014 353° North 458 527 45,000  Level Atlanta Center
11:51AM 31.6400 -83.0192 354° North 475 547 45,000  Level Atlanta Center
11:52AM 31.7739 -83.0372 353° North 480 552 45,000  Level Atlanta Center
11:53AM 31.9056 -83.0531 354° North 480 552 45,000  Level Atlanta Center
11:54AM 32.0286 -83.0686 354° North 487 560 45,000  Level Atlanta Center
11:55AM 32.1603 -83.0869 353° North 481 554 45,000  Level Atlanta Center
11:56AM 32.2942 -83.1028 354° North 481 554 45,000  Level Atlanta Center
11:57AM 32.4278 -83.1186 354° North 481 554 45,000  Level Atlanta Center
11:58AM 32.5594 -83.1392 353° North 481 554 45,000  Level Atlanta Center
11:59AM 32.6931 -83.1578 353° North 481 554 45,000  Level Atlanta Center
12:00PM 32.8228 -83.1761 353° North 481 554 45,000  Level Atlanta Center
12:01PM 32.9522 -83.1922 354° North 476 548 45,000  Level Atlanta Center
12:02PM 33.0900 -83.2106 354° North 484 557 45,000  Level Atlanta Center
12:03PM 33.2217 -83.2292 353° North 479 551 45,000  Level Atlanta Center
12:04PM 33.3681 -83.2453 355° North 479 551 45,000  Level Atlanta Center
12:05PM 33.4994 -83.2642 353° North 479 551 45,000  Level Atlanta Center
12:06PM 33.6353 -83.2828 353° North 484 557 45,000  Level Atlanta Center
12:07PM 33.7650 -83.3017 353° North 478 550 45,000  Level Atlanta Center
12:08PM 33.9006 -83.3156 355° North 483 556 45,000  Level Atlanta Center
12:09PM 34.0322 -83.3469 349° North 483 556 45,000  Level Atlanta Center
12:10PM 34.1639 -83.3836 347° North 483 556 45,000  Level Atlanta Center
12:11PM 34.2958 -83.4228 346° North 483 556 45,000  Level Atlanta Center
12:12PM 34.4253 -83.4619 346° North 483 556 45,000  Level Atlanta Center
12:13PM 34.5592 -83.5014 346° North 488 562 45,000  Level Atlanta Center
12:14PM 34.6886 -83.5411 346° North 482 555 45,000  Level Atlanta Center
12:15PM 34.8222 -83.5733 349° North 482 555 45,000  Level Atlanta Center
12:16PM 34.9372 -83.6106 345° North 487 560 45,000  Level Atlanta Center
12:17PM 35.0708 -83.6506 346° North 482 555 45,000  Level Atlanta Center
12:18PM 35.2025 -83.6906 346° North 482 555 45,000  Level Atlanta Center
12:19PM 35.3339 -83.7281 347° North 482 555 45,000  Level Atlanta Center
12:20PM 35.4633 -83.7658 347° North 482 555 45,000  Level Atlanta Center
12:21PM 35.5950 -83.8039 347° North 477 549 45,000  Level Atlanta Center
12:22PM 35.7264 -83.8417 347° North 477 549 45,000  Level Atlanta Center
12:23PM 35.8581 -83.8825 346° North 477 549 45,000 -180 Level Atlanta Center
12:26PM 36.2125 -83.9397 353° North 490 564 44,500 -600 Descending Indianapolis Center
12:27PM 36.3486 -83.9597 353° North 494 568 43,100 -1,440 Descending Indianapolis Center
12:28PM 36.4836 -83.9803 353° North 491 565 41,600 -1,560 Descending Indianapolis Center
12:29PM 36.6272 -84.0019 353° North 482 555 39,900 -1,560 Descending Indianapolis Center
12:30PM 36.7556 -84.0214 353° North 468 539 38,400 -1,500 Descending Indianapolis Center
12:31PM 36.8803 -84.0394 353° North 453 521 36,900 -1,500 Descending Indianapolis Center
12:32PM 37.0064 -84.0594 353° North 454 522 35,400 -1,800 Descending Indianapolis Center
12:33PM 37.1353 -84.0772 354° North 460 529 33,300 -1,860 Descending Indianapolis Center
12:34PM 37.2647 -84.0967 353° North 466 536 31,600 -1,140 Descending Indianapolis Center
12:35PM 37.3897 -84.1164 353° North 453 521 31,000 -300 Descending Indianapolis Center
12:36PM 37.5422 -84.1392 353° North 472 543 31,000 -300 Level Indianapolis Center
12:37PM 37.6783 -84.1606 353° North 487 560 30,500 -1,200 Descending Indianapolis Center
12:38PM 37.8050 -84.1797 353° North 459 528 28,600 -1,920 Descending Indianapolis Center
12:39PM 37.9261 -84.1983 353° North 442 509 26,600 -1,980 Descending Indianapolis Center
12:40PM 38.0456 -84.2161 353° North 433 498 24,600 -1,620 Descending Indianapolis Center
12:41PM 38.1619 -84.2339 353° North 422 486 23,300 -1,560 Descending Indianapolis Center
12:42PM 38.2950 -84.2542 353° North 414 476 21,400 -1,800 Descending Indianapolis Center
12:43PM 38.4147 -84.2722 353° North 429 494 19,700 -1,740 Descending Indianapolis Center
12:44PM 38.5331 -84.2922 352° North 428 493 17,900 -1,800 Descending Indianapolis Center
12:45PM 38.6503 -84.3172 351° North 428 493 16,100 -1,740 Descending Indianapolis Center
12:46PM 38.7681 -84.3639 343° North 433 498 14,400 -1,020 Descending Indianapolis Center
12:47PM 38.8753 -84.4094 342° North 408 470 14,000 -420 Descending Indianapolis Center
12:48PM 38.9333 -84.4333 342° North 411 473 13,900 -1,140 Descending Cincinnati TRACON
12:49PM 39.0333 -84.4833 339° North 391 450 12,500 -1,500 Descending Cincinnati TRACON
12:50PM 39.1333 -84.5167 346° North 373 429 11,000 -1,440 Descending Cincinnati TRACON
12:50PM 39.1975 -84.5397 344° North 366 421 10,100 -600 Descending Indianapolis Center
12:51PM 39.2875 -84.4906 23° Northeast 334 384 10,000 -60 Descending Indianapolis Center
12:52PM 39.3506 -84.4392 32° Northeast 279 321 10,000  Level Indianapolis Center
12:53PM 39.4278 -84.3761 32° Northeast 300 345 10,000  Level Indianapolis Center
12:54PM 39.5031 -84.3164 31° Northeast 301 346 10,000  Level Indianapolis Center
12:55PM 39.5806 -84.2644 27° Northeast 363 418 10,000  Level Indianapolis Center
12:56PM 39.6781 -84.2231 18° North 378 435 10,000 -600 Level Indianapolis Center
12:58PM 39.7831 -84.1806 17° North 327 376 8,800 -1,200 Descending Indianapolis Center
12:58PM 39.8339 -84.1597 17° North 276 318 7,800 -1,500 Descending Indianapolis Center
12:59PM 39.8558 -84.1486 21° North 282 325 7,300 -1,920 Descending Indianapolis Center
12:59PM 39.9075 -84.1286 17° North 268 308 5,900 -1,980 Descending Indianapolis Center
01:00PM 39.9289 -84.1222 13° North 273 314 5,300 -1,440 Descending Indianapolis Center
01:01PM 40.0025 -84.1297 356° North 265 305 4,000 -1,020 Descending Indianapolis Center
01:01PM 40.0361 -84.1456 340° North 216 249 3,700 -780 Descending Indianapolis Center
01:02PM 40.0383 -84.1769 275° West 242 278 3,200 -720 Descending Indianapolis Center
01:02PM 40.0144 -84.2108 227° Southwest 218 251 3,000 -420 Descending Indianapolis Center
01:03PM 39.9917 -84.2161 190° South 221 254 2,800 -900 Descending Indianapolis Center
01:03PM 39.9636 -84.2150 178° South 174 200 2,100 -900 Descending Indianapolis Center
01:04PM 39.9442 -84.2142 178° South 200 230 1,900 -420 Descending Indianapolis Center